Terminal Aerodrome Forecast
Issued by NWS La Crosse, WI

Home | Current Version | Previous Version | Text Only | Print | Product List | Glossary On
Versions: 1 2 3 4 5 6 7 8 9 10 11 12 13 14 15 16 17 18 19 20 21 22 23 24 25 26 27 28 29 30 31 32 33 34 35 36 37 38 39 40 41 42
000
FTUS43 KARX 241130
TAFRST
TAF
KRST 241130Z 2412/2512 33005KT 6SM BR OVC008
     FM241800 10007KT P6SM OVC010
     FM250000 07010KT 3SM -SN OVC008
     FM250200 07013KT 1SM -SN OVC003=

USA.gov is the U.S. government's official web portal to all federal, state and local government web resources and services.